x

Boston 16 Nm East Of Boston, Ma (44013) Wave Buoy

5:50 - Mon 27th Apr 2015 All times are EDT. -4 hours from GMT.

  • Sig Wave height 1.3ft
  • Swell Direction
  • Peak Period 9s
  • Average Period 8s
  • Wind
    9mph, 11mph gusts
  • Sea Temp 44°f
  • Air Temp 45°f
  • Sea Pressure 1001.8mb
  • Boston 16 Nm East Of Boston, Ma
  • Boston 16 Nm East Of Boston, Ma

More Historic Weather Station data

Upgrade to MSW Pro to gain access to the past 30 days of data for over 8000 Wavebouys and Weather Stations around the globe.

Join Pro

Comparision Forecast

View Surf forecast
   
lun. 04/27 5:50 1.3ft 9s 8s 9 11 mph 1001.8mb 44f 45f
4:50 1.3ft 10s 8s 7 9 mph 1001.9mb 44f 44f
3:50 1.3ft 10s 8s 9
mph
1002mb 44f 45f
2:50 1.3ft 9s 8s 7
mph
1002.2mb 44f 45f
1:50 1.3ft 9s 8s 7 9 mph 1002.5mb 44f 45f
12:50 1.3ft 10s 8s 9
mph
1002.7mb 44f 46f
dim. 04/26 11:50 1.3ft 10s 9s 7 9 mph 1002.8mb 44f 45f
10:50 1ft 10s 8s 4
mph
1002.9mb 44f 44f
9:50 1.3ft 10s 8s 2 4 mph 1003.1mb 44f 44f
8:50 1.3ft 11s 8s 4 7 mph 1003.2mb 44f 44f
7:50 1ft 11s 7s 7
mph
1003.2mb 44f 44f
6:50 1ft 11s 8s 9 11 mph 1003mb 45f 44f
5:50 1ft 11s 7s 7 9 mph 1003.1mb 46f 44f
4:50 1.3ft 11s 8s 7 9 mph 1003.2mb 46f 44f
3:50 1.3ft 11s 8s 7 9 mph 1003.4mb 47f 45f
2:50 1.3ft 10s 8s 4
mph
1003.7mb 46f 46f
1:50 1.3ft 11s 8s 2
mph
1003.9mb 46f 46f
12:50 1.3ft 11s 9s  -  2 mph 1004.5mb 46f 49f
11:50 1.3ft 11s 8s 2
mph
1005.1mb 44f 45f
10:50 1.3ft 11s 8s 2 4 mph 1005.1mb 44f 44f
9:50 1.3ft 11s 8s 7
mph
1005.1mb 43f 43f
8:50 1.3ft 11s 8s 4 7 mph 1004.9mb 43f 43f
7:50 1.3ft 11s 7s 4 7 mph 1005.1mb 43f 43f
6:50 1.3ft 11s 7s 4 7 mph 1005.1mb 43f 43f
5:50 1ft 12s 7s 4
mph
1004.4mb 43f 42f
4:50 1ft 12s 7s 4
mph
1004.5mb 43f 42f
3:50 1.3ft 11s 6s 7 9 mph 1004.6mb 43f 42f
2:50 1.3ft 11s 5s 9 11 mph 1004.9mb 43f 42f
1:50 1.3ft 11s 5s 11 13 mph 1005.7mb 43f 42f
12:50 1ft 9s 6s 9
mph
1006.4mb 43f 43f
sam. 04/25 11:50 1.3ft 11s 7s 9 13 mph 1006.6mb 43f 44f
10:50 1.3ft 10s 5s 7 9 mph 1006.7mb 43f 44f
9:50 1.3ft 10s 5s 2 4 mph 1006.9mb 43f 43f
8:50 1ft 11s 5s 2
mph
1006.6mb 43f 44f
7:50 1ft 11s 4s 2 4 mph 1006.3mb 43f 44f
6:50 1ft 10s 4s 7 9 mph 1005.7mb 44f 44f
5:50 1.3ft 11s 4s 7 9 mph 1005.5mb 44f 44f
4:50 1ft 11s 4s 13
mph
1005.1mb 44f 43f
3:50 1ft 8s 4s 9 11 mph 1005.3mb 44f 43f
2:50 1.3ft 11s 4s 11 13 mph 1005.4mb 44f 43f
1:50 1.3ft 10s 4s 7 11 mph 1006mb 44f 45f
12:50 1.3ft 9s 4s 4 7 mph 1006.4mb 43f 44f
11:50 1.3ft 10s 4s 7 9 mph 1006.9mb 43f 43f
10:50 1.6ft 3s 3s 13 18 mph 1007.3mb 43f 42f
9:50 1.6ft 3s 3s 13 16 mph 1007.5mb 42f 40f
8:50 1.6ft 3s 3s 13 18 mph 1008.2mb 42f 39f
7:50 2ft 3s 3s 13 18 mph 1008.3mb 42f 38f
6:50 2.5ft 3s 3s 18 20 mph 1008.1mb 42f 38f
5:50 2.5ft 3s 3s 18 22 mph 1007.4mb 42f 38f
4:50 2.5ft 4s 3s 18 22 mph 1007.1mb 43f 39f
3:50 2.5ft 3s 3s 18 22 mph 1007.2mb 43f 39f
2:50 2.5ft 4s 3s 13 18 mph 1007.4mb 43f 40f
1:50 3ft 4s 4s 22 29 mph 1007.4mb 42f 40f
12:50 3ft 3s 3s 22 27 mph 1007.9mb 42f 41f
ven. 04/24 11:50 3ft 3s 4s 22 27 mph 1008.2mb 42f 41f
10:50 2.5ft 4s 4s 20 25 mph 1008.3mb 43f 42f
9:50 2.5ft 3s 4s 22 27 mph 1008mb 43f 43f
8:50 2.5ft 4s 3s 16 18 mph 1008mb 43f 44f
7:50 2.5ft 4s 4s 20 22 mph 1007.2mb 43f 44f
6:50 2.5ft 3s 4s 16 20 mph 1006.4mb 43f 44f
5:50 2.5ft 11s 4s 16 18 mph 1005.8mb 43f 45f
4:50 2ft 3s 4s 16 18 mph 1005.5mb 43f 45f
3:50 2.5ft 3s 4s 13 16 mph 1005.2mb 43f 44f
2:50 2.5ft 3s 4s 16 18 mph 1005.2mb 43f 44f
1:50 2.5ft 3s 4s 16 20 mph 1005.5mb 43f 44f
12:50 3ft 3s 4s 18 20 mph 1005.6mb 43f 43f
11:50 3ft 4s 4s 16 20 mph 1006mb 43f 42f
10:50 3ft 4s 4s 20 25 mph 1006.1mb 43f 42f
9:50 3ft 4s 4s 22 27 mph 1005.8mb 43f 42f
8:50 2.5ft 4s 3s 22 27 mph 1005.6mb 42f 41f
7:50 2.5ft 4s 4s 22 25 mph 1005.8mb 42f 40f
6:50 3ft 4s 4s 25 29 mph 1005.3mb 42f 39f
5:50 3.5ft 4s 4s 22 27 mph 1004.9mb 43f 38f
4:50 3.5ft 4s 4s 22 27 mph 1004.8mb 43f 38f
3:50 3ft 4s 4s 22 29 mph 1004.6mb 43f 38f
2:50 3.5ft 4s 4s 22 27 mph 1004.6mb 43f 38f
1:50 3.5ft 4s 4s 20 25 mph 1004.7mb 43f 39f
12:50 3ft 9s 4s 22 27 mph 1004.9mb 43f 40f
jeu. 04/23 11:50 3ft 11s 4s 22 27 mph 1004.9mb 43f 40f
10:50 3.5ft 9s 4s 22 27 mph 1004.9mb 43f 41f
9:50 3.5ft 9s 4s 22 27 mph 1004.7mb 43f 42f
8:50 3.5ft 9s 4s 22 27 mph 1004.2mb 43f 43f
7:50 3.5ft 10s 4s 20 25 mph 1003.6mb 43f 44f
6:50 3.5ft 10s 4s 16 22 mph 1003.1mb 43f 45f
5:50 3.5ft 9s 4s 16 20 mph 1002.6mb 43f 45f
4:50 3.5ft 10s 5s 16 22 mph 1002.2mb 43f 46f
3:50 3.5ft 11s 5s 13 18 mph 1001.9mb 43f 45f
2:50 3.5ft 10s 5s 13 18 mph 1001.9mb 43f 45f
1:50 3.5ft 10s 6s 18 22 mph 1002mb 43f 45f
12:50 3.5ft 9s 6s 13 18 mph 1002.2mb 43f 45f
11:50 3.5ft 8s 6s 16 18 mph 1002.5mb 43f 44f
10:50 3.5ft 9s 5s 13 18 mph 1002.8mb 43f 44f